createdAt,value
2019-03-31T00:00:47.280Z,101231.78
2019-03-31T00:03:22.166Z,101230.02
2019-03-31T00:05:58.398Z,101226.09
2019-03-31T00:08:33.351Z,101225.64
2019-03-31T00:11:07.244Z,101223.45
2019-03-31T00:13:41.171Z,101217.79
2019-03-31T00:16:16.441Z,101219.53
2019-03-31T00:18:50.263Z,101210.34
2019-03-31T00:21:24.597Z,101212.11
2019-03-31T00:23:58.505Z,101204.68
2019-03-31T00:26:32.886Z,101202.08
2019-03-31T00:29:07.317Z,101207.30
2019-03-31T00:31:41.154Z,101203.80
2019-03-31T00:34:14.914Z,101201.64
2019-03-31T00:36:48.749Z,101191.56
2019-03-31T00:39:22.527Z,101193.78
2019-03-31T00:41:56.372Z,101190.26
2019-03-31T00:44:30.131Z,101186.33
2019-03-31T00:47:04.052Z,101184.14
2019-03-31T00:49:37.864Z,101188.08
2019-03-31T00:52:11.720Z,101183.72
2019-03-31T00:54:45.549Z,101185.44
2019-03-31T00:57:19.555Z,101186.73
2019-03-31T00:59:53.458Z,101184.54
2019-03-31T01:02:30.886Z,101180.59
2019-03-31T01:05:05.259Z,101191.11
2019-03-31T01:07:39.529Z,101184.09
2019-03-31T01:10:13.445Z,101180.60
2019-03-31T01:12:47.606Z,101185.84
2019-03-31T01:15:24.183Z,101184.08
2019-03-31T01:17:58.369Z,101187.59
2019-03-31T01:20:33.403Z,101188.44
2019-03-31T01:23:07.485Z,101188.86
2019-03-31T01:25:41.725Z,101183.16
2019-03-31T01:28:16.688Z,101182.29
2019-03-31T01:30:51.645Z,101180.59
2019-03-31T01:33:26.660Z,101178.38
2019-03-31T01:36:00.706Z,101182.32
2019-03-31T01:38:35.751Z,101179.69
2019-03-31T01:41:13.067Z,101175.34
2019-03-31T01:43:47.198Z,101171.41
2019-03-31T01:46:24.948Z,101174.45
2019-03-31T01:49:24.610Z,101176.62
2019-03-31T01:51:59.378Z,101177.03
2019-03-31T01:54:40.255Z,101168.75
2019-03-31T01:57:14.909Z,101167.41
2019-03-31T01:59:52.874Z,101165.23
2019-03-31T02:02:51.733Z,101164.31
2019-03-31T02:05:26.240Z,101162.50
2019-03-31T02:08:00.203Z,101166.81
2019-03-31T02:10:34.199Z,101159.42
2019-03-31T02:13:08.162Z,101165.09
2019-03-31T02:15:42.605Z,101158.58
2019-03-31T02:18:16.598Z,101155.08
2019-03-31T02:20:52.412Z,101158.14
2019-03-31T02:23:26.821Z,101150.31
2019-03-31T02:26:01.311Z,101152.95
2019-03-31T02:28:35.207Z,101144.21
2019-03-31T02:31:09.571Z,101146.81
2019-03-31T02:33:43.512Z,101149.46
2019-03-31T02:36:17.545Z,101153.38
2019-03-31T02:38:51.518Z,101151.20
2019-03-31T02:41:25.939Z,101152.52
2019-03-31T02:43:59.911Z,101145.09
2019-03-31T02:46:35.346Z,101143.77
2019-03-31T02:49:09.433Z,101144.21
2019-03-31T02:51:43.408Z,101150.29
2019-03-31T02:54:17.262Z,101138.96
2019-03-31T02:56:51.270Z,101141.13
2019-03-31T02:59:25.239Z,101137.64
2019-03-31T03:01:59.217Z,101146.37
2019-03-31T03:04:33.768Z,101145.50
2019-03-31T03:07:07.770Z,101137.23
2019-03-31T03:09:42.798Z,101134.61
2019-03-31T03:12:16.664Z,101136.36
2019-03-31T03:14:51.594Z,101140.29
2019-03-31T03:17:25.663Z,101133.75
2019-03-31T03:19:59.589Z,101137.72
2019-03-31T03:22:35.377Z,101136.87
2019-03-31T03:25:10.327Z,101135.98
2019-03-31T03:27:44.235Z,101129.03
2019-03-31T03:30:18.400Z,101136.90
2019-03-31T03:33:13.246Z,101141.27
2019-03-31T03:35:32.571Z,101132.08
2019-03-31T03:38:07.575Z,101136.47
2019-03-31T03:40:41.486Z,101136.45
2019-03-31T03:43:15.510Z,101131.22
2019-03-31T03:45:49.514Z,101132.52
2019-03-31T03:48:23.604Z,101131.25
2019-03-31T03:50:57.605Z,101129.93
2019-03-31T03:53:31.440Z,101131.24
2019-03-31T03:56:05.771Z,101130.83
2019-03-31T03:58:39.729Z,101125.16
2019-03-31T04:01:19.291Z,101119.48
2019-03-31T04:03:53.250Z,101123.84
2019-03-31T04:06:27.439Z,101121.22
2019-03-31T04:09:01.281Z,101118.63
2019-03-31T04:11:36.311Z,101123.86
2019-03-31T04:14:10.190Z,101128.65
2019-03-31T04:16:43.950Z,101130.39
2019-03-31T04:19:17.796Z,101138.27
2019-03-31T04:21:51.619Z,101134.78
2019-03-31T04:24:25.380Z,101128.69
2019-03-31T04:26:59.335Z,101132.59
2019-03-31T04:29:33.113Z,101136.52
2019-03-31T04:32:06.993Z,101133.45
2019-03-31T04:34:40.859Z,101135.22
2019-03-31T04:37:14.693Z,101143.94
2019-03-31T04:39:48.666Z,101136.55
2019-03-31T04:42:22.479Z,101156.63
2019-03-31T04:44:58.570Z,101156.19
2019-03-31T04:47:32.448Z,101153.15
2019-03-31T04:50:07.598Z,101145.71
2019-03-31T04:52:42.700Z,101136.98
2019-03-31T04:55:16.569Z,101130.44
2019-03-31T04:57:50.512Z,101154.91
2019-03-31T05:00:24.511Z,101137.41
2019-03-31T05:02:58.493Z,101143.52
2019-03-31T05:05:32.595Z,101143.55
2019-03-31T05:08:06.554Z,101144.41
2019-03-31T05:10:40.512Z,101149.20
2019-03-31T05:13:15.808Z,101157.50
2019-03-31T05:15:49.672Z,101147.02
2019-03-31T05:18:23.530Z,101154.44
2019-03-31T05:20:57.413Z,101157.50
2019-03-31T05:23:31.328Z,101159.66
2019-03-31T05:26:06.071Z,101164.47
2019-03-31T05:28:39.776Z,101168.39
2019-03-31T05:31:13.487Z,101167.09
2019-03-31T05:33:50.780Z,101179.30
2019-03-31T05:36:24.670Z,101184.09
2019-03-31T05:38:58.459Z,101176.20
2019-03-31T05:41:32.558Z,101184.50
2019-03-31T05:44:06.523Z,101187.98
2019-03-31T05:46:40.440Z,101189.27
2019-03-31T05:49:14.371Z,101188.80
2019-03-31T05:51:48.355Z,101193.17
2019-03-31T05:54:22.222Z,101182.68
2019-03-31T05:56:56.295Z,101194.02
2019-03-31T05:59:30.183Z,101187.88
2019-03-31T06:02:04.038Z,101197.92
2019-03-31T06:04:38.967Z,101204.48
2019-03-31T06:07:12.953Z,101197.91
2019-03-31T06:09:47.192Z,101198.77
2019-03-31T06:12:21.342Z,101201.37
2019-03-31T06:14:55.364Z,101201.77
2019-03-31T06:17:29.067Z,101206.13
2019-03-31T06:20:03.146Z,101207.00
2019-03-31T06:22:36.940Z,101208.29
2019-03-31T06:25:10.635Z,101198.20
2019-03-31T06:27:44.423Z,101202.98
2019-03-31T06:30:18.523Z,101204.71
2019-03-31T06:32:55.350Z,101209.07
2019-03-31T06:35:27.684Z,101217.73
2019-03-31T06:38:01.589Z,101220.36
2019-03-31T06:40:36.925Z,101229.84
2019-03-31T06:43:10.730Z,101225.88
2019-03-31T06:45:44.492Z,101230.71
2019-03-31T06:48:18.348Z,101229.36
2019-03-31T06:50:52.037Z,101236.76
2019-03-31T06:53:25.807Z,101241.72
2019-03-31T06:55:59.519Z,101244.20
2019-03-31T06:58:33.820Z,101250.85
2019-03-31T07:01:07.673Z,101247.45
2019-03-31T07:03:41.437Z,101251.77
2019-03-31T07:06:15.319Z,101256.70
2019-03-31T07:08:49.155Z,101254.52
2019-03-31T07:11:22.814Z,101259.00
2019-03-31T07:13:56.519Z,101257.64
2019-03-31T07:16:30.299Z,101255.11
2019-03-31T07:19:04.069Z,101248.71
2019-03-31T07:21:37.676Z,101260.20
2019-03-31T07:24:11.354Z,101263.58
2019-03-31T07:26:44.983Z,101270.40
2019-03-31T07:29:18.679Z,101272.84
2019-03-31T07:31:52.492Z,101281.41
2019-03-31T07:34:26.294Z,101281.67
2019-03-31T07:37:00.009Z,101288.47
2019-03-31T07:39:33.901Z,101296.48
2019-03-31T07:42:08.460Z,101302.89
2019-03-31T07:44:42.262Z,101301.95
2019-03-31T07:47:18.594Z,101306.04
2019-03-31T07:50:04.026Z,101313.45
2019-03-31T07:52:38.472Z,101308.41
2019-03-31T07:55:12.257Z,101318.75
2019-03-31T07:57:46.027Z,101322.54
2019-03-31T08:00:21.358Z,101318.37
2019-03-31T08:02:55.044Z,101325.31
2019-03-31T08:05:33.253Z,101324.96
2019-03-31T08:08:04.141Z,101324.73
2019-03-31T08:10:38.846Z,101329.94
2019-03-31T08:13:12.517Z,101329.92
2019-03-31T08:15:46.243Z,101334.64
2019-03-31T08:18:19.984Z,101337.59
2019-03-31T08:20:53.769Z,101343.03
2019-03-31T08:23:27.531Z,101345.57
2019-03-31T08:26:01.216Z,101352.48
2019-03-31T08:28:34.995Z,101348.17
2019-03-31T08:31:08.815Z,101355.05
2019-03-31T08:33:42.606Z,101363.54
2019-03-31T08:36:16.292Z,101368.08
2019-03-31T08:38:54.489Z,101375.45
2019-03-31T08:41:28.560Z,101372.27
2019-03-31T08:44:02.139Z,101378.81
2019-03-31T08:46:36.470Z,101373.02
2019-03-31T08:49:10.200Z,101379.39
2019-03-31T08:51:43.883Z,101380.00
2019-03-31T08:54:17.550Z,101390.84
2019-03-31T08:56:51.340Z,101391.80
2019-03-31T08:59:25.133Z,101391.14
2019-03-31T09:01:58.959Z,101396.14
2019-03-31T09:04:32.773Z,101401.95
2019-03-31T09:07:06.469Z,101413.25
2019-03-31T09:09:40.137Z,101414.81
2019-03-31T09:12:18.373Z,101416.85
2019-03-31T09:14:52.146Z,101414.31
2019-03-31T09:17:25.794Z,101433.20
2019-03-31T09:19:59.464Z,101437.25
2019-03-31T09:22:33.179Z,101442.28
2019-03-31T09:25:07.031Z,101447.53
2019-03-31T09:27:40.723Z,101425.20
2019-03-31T09:30:16.249Z,101448.38
2019-03-31T09:32:50.031Z,101419.47
2019-03-31T09:35:23.877Z,101455.39
2019-03-31T09:37:57.808Z,101459.41
2019-03-31T09:40:31.426Z,101460.48
2019-03-31T09:43:05.203Z,101462.62
2019-03-31T09:45:38.791Z,101461.61
2019-03-31T09:48:13.079Z,101465.08
2019-03-31T09:50:46.838Z,101463.22
2019-03-31T09:53:22.212Z,101467.73
2019-03-31T09:55:55.949Z,101473.14
2019-03-31T09:58:31.311Z,101471.70
2019-03-31T10:01:08.007Z,101475.67
2019-03-31T10:03:41.360Z,101473.40
2019-03-31T10:06:29.266Z,101469.54
2019-03-31T10:08:50.494Z,101439.39
2019-03-31T10:11:24.223Z,101479.47
2019-03-31T10:13:57.903Z,101481.37
2019-03-31T10:16:32.019Z,101486.53
2019-03-31T10:19:05.778Z,101478.53
2019-03-31T10:21:39.400Z,101480.03
2019-03-31T10:24:13.033Z,101468.66
2019-03-31T10:26:46.739Z,101477.95
2019-03-31T10:29:20.380Z,101477.30
2019-03-31T10:31:55.040Z,101487.20
2019-03-31T10:34:30.203Z,101481.09
2019-03-31T10:37:03.957Z,101487.33
2019-03-31T10:39:37.715Z,101486.00
2019-03-31T10:42:11.357Z,101493.05
2019-03-31T10:44:45.045Z,101490.20
2019-03-31T10:47:18.767Z,101492.05
2019-03-31T10:49:52.401Z,101496.56
2019-03-31T10:52:26.017Z,101499.59
2019-03-31T10:54:59.691Z,101492.78
2019-03-31T10:57:33.280Z,101494.17
2019-03-31T11:00:07.573Z,101508.31
2019-03-31T11:02:41.317Z,101494.19
2019-03-31T11:05:15.039Z,101510.23
2019-03-31T11:07:48.703Z,101511.97
2019-03-31T11:10:22.404Z,101517.05
2019-03-31T11:12:56.133Z,101511.07
2019-03-31T11:15:29.821Z,101514.75
2019-03-31T11:18:03.405Z,101509.70
2019-03-31T11:20:37.165Z,101509.02
2019-03-31T11:23:18.912Z,101514.41
2019-03-31T11:25:52.692Z,101511.39
2019-03-31T11:28:27.128Z,101512.78
2019-03-31T11:31:01.185Z,101516.61
2019-03-31T11:33:34.833Z,101517.02
2019-03-31T11:36:08.412Z,101517.12
2019-03-31T11:38:41.989Z,101518.45
2019-03-31T11:41:15.651Z,101519.00
2019-03-31T11:43:49.205Z,101518.28
2019-03-31T11:46:22.875Z,101522.83
2019-03-31T11:48:56.508Z,101523.74
2019-03-31T11:51:30.479Z,101532.28
2019-03-31T11:54:04.180Z,101539.52
2019-03-31T11:56:38.811Z,101538.64
2019-03-31T11:59:12.375Z,101541.22
2019-03-31T12:01:53.663Z,101542.01
2019-03-31T12:04:28.677Z,101540.89
2019-03-31T12:07:02.401Z,101547.81
2019-03-31T12:09:37.250Z,101555.70
2019-03-31T12:12:10.888Z,101557.84
2019-03-31T12:14:44.452Z,101560.90
2019-03-31T12:17:18.004Z,101558.64
2019-03-31T12:19:51.651Z,101561.36
2019-03-31T12:22:25.269Z,101564.41
2019-03-31T12:24:58.920Z,101554.80
2019-03-31T12:27:32.594Z,101556.03
2019-03-31T12:30:08.721Z,101549.84
2019-03-31T12:32:42.394Z,101559.11
2019-03-31T12:35:15.971Z,101561.42
2019-03-31T12:37:49.668Z,101550.16
2019-03-31T12:40:37.035Z,101542.16
2019-03-31T12:43:10.755Z,101552.72
2019-03-31T12:45:48.735Z,101568.03
2019-03-31T12:48:22.529Z,101574.36
2019-03-31T12:50:58.103Z,101572.53
2019-03-31T12:53:31.988Z,101573.09
2019-03-31T12:56:05.684Z,101573.50
2019-03-31T12:58:39.527Z,101579.64
2019-03-31T13:01:13.283Z,101586.72
2019-03-31T13:03:47.013Z,101573.08
2019-03-31T13:06:20.780Z,101582.48
2019-03-31T13:08:55.603Z,101590.26
2019-03-31T13:11:29.452Z,101584.98
2019-03-31T13:14:03.755Z,101593.27
2019-03-31T13:16:38.601Z,101591.84
2019-03-31T13:19:12.577Z,101588.80
2019-03-31T13:21:46.534Z,101585.96
2019-03-31T13:24:20.455Z,101583.48
2019-03-31T13:26:54.411Z,101587.89
2019-03-31T13:29:28.422Z,101588.53
2019-03-31T13:32:02.394Z,101581.89
2019-03-31T13:34:36.420Z,101575.30
2019-03-31T13:37:10.328Z,101571.39
2019-03-31T13:39:44.010Z,101572.26
2019-03-31T13:42:17.689Z,101577.12
2019-03-31T13:44:51.492Z,101580.57
2019-03-31T13:47:25.173Z,101585.41
2019-03-31T13:49:58.842Z,101583.30
2019-03-31T13:52:32.512Z,101588.17
2019-03-31T13:55:06.461Z,101585.48
2019-03-31T13:57:42.253Z,101575.85
2019-03-31T14:00:25.025Z,101581.25
2019-03-31T14:02:55.815Z,101580.22
2019-03-31T14:05:29.482Z,101576.75
2019-03-31T14:08:24.672Z,101579.84
2019-03-31T14:10:45.765Z,101584.17
2019-03-31T14:13:19.563Z,101579.26
2019-03-31T14:15:53.212Z,101580.17
2019-03-31T14:18:26.771Z,101578.48
2019-03-31T14:21:00.330Z,101578.12
2019-03-31T14:23:33.906Z,101574.70
2019-03-31T14:26:07.469Z,101579.98
2019-03-31T14:28:41.265Z,101578.07
2019-03-31T14:31:22.965Z,101576.21
2019-03-31T14:33:58.907Z,101575.75
2019-03-31T14:36:34.606Z,101572.16
2019-03-31T14:39:10.707Z,101568.06
2019-03-31T14:41:44.411Z,101571.59
2019-03-31T14:44:17.994Z,101576.37
2019-03-31T14:46:51.781Z,101570.65
2019-03-31T14:49:26.028Z,101571.91
2019-03-31T14:52:01.482Z,101569.27
2019-03-31T14:54:35.291Z,101564.34
2019-03-31T14:57:08.902Z,101563.42
2019-03-31T14:59:42.488Z,101554.98
2019-03-31T15:02:16.173Z,101562.05
2019-03-31T15:04:50.219Z,101566.52
2019-03-31T15:07:25.567Z,101563.02
2019-03-31T15:10:01.386Z,101570.89
2019-03-31T15:12:40.114Z,101567.44
2019-03-31T15:15:15.400Z,101565.30
2019-03-31T15:17:48.983Z,101572.31
2019-03-31T15:20:22.751Z,101575.34
2019-03-31T15:22:56.478Z,101581.02
2019-03-31T15:25:30.212Z,101577.02
2019-03-31T15:28:04.143Z,101573.86
2019-03-31T15:30:37.877Z,101569.16
2019-03-31T15:33:11.722Z,101562.31
2019-03-31T15:35:45.407Z,101573.28
2019-03-31T15:38:18.997Z,101575.50
2019-03-31T15:40:52.971Z,101571.14
2019-03-31T15:43:26.676Z,101565.82
2019-03-31T15:46:00.420Z,101577.29
2019-03-31T15:48:34.160Z,101575.61
2019-03-31T15:51:15.439Z,101576.20
2019-03-31T15:53:49.110Z,101586.72
2019-03-31T15:56:23.864Z,101584.12
2019-03-31T15:58:57.540Z,101585.98
2019-03-31T16:01:31.166Z,101580.31
2019-03-31T16:04:04.870Z,101585.13
2019-03-31T16:06:39.600Z,101587.84
2019-03-31T16:09:23.349Z,101592.25
2019-03-31T16:11:53.616Z,101596.17
2019-03-31T16:14:21.583Z,101597.56
2019-03-31T16:16:54.487Z,101606.83
2019-03-31T16:19:27.326Z,101595.01
2019-03-31T16:22:00.139Z,101602.88
2019-03-31T16:24:39.077Z,101604.66
2019-03-31T16:27:11.919Z,101599.00
2019-03-31T16:29:44.952Z,101607.33
2019-03-31T16:32:17.855Z,101604.31
2019-03-31T16:34:50.792Z,101612.67
2019-03-31T16:37:23.618Z,101614.81
2019-03-31T16:39:56.450Z,101616.62
2019-03-31T16:42:29.273Z,101625.91
2019-03-31T16:45:03.757Z,101621.05
2019-03-31T16:47:36.654Z,101623.72
2019-03-31T16:50:09.577Z,101626.36
2019-03-31T16:52:42.392Z,101627.34
2019-03-31T16:55:15.153Z,101634.34
2019-03-31T16:57:47.897Z,101644.11
2019-03-31T17:00:20.777Z,101645.48
2019-03-31T17:02:53.594Z,101638.89
2019-03-31T17:05:26.429Z,101654.70
2019-03-31T17:07:59.622Z,101658.28
2019-03-31T17:10:32.561Z,101664.89
2019-03-31T17:13:05.291Z,101671.04
2019-03-31T17:15:38.081Z,101669.33
2019-03-31T17:18:10.918Z,101672.84
2019-03-31T17:20:43.772Z,101674.61
2019-03-31T17:23:16.532Z,101684.23
2019-03-31T17:25:49.406Z,101688.63
2019-03-31T17:28:22.338Z,101693.44
2019-03-31T17:30:55.192Z,101692.58
2019-03-31T17:33:30.277Z,101693.45
2019-03-31T17:36:02.423Z,101698.30
2019-03-31T17:38:35.327Z,101703.98
2019-03-31T17:41:08.227Z,101705.28
2019-03-31T17:43:41.063Z,101710.11
2019-03-31T17:46:13.900Z,101714.91
2019-03-31T17:48:46.645Z,101722.36
2019-03-31T17:51:19.493Z,101728.51
2019-03-31T17:53:52.318Z,101733.73
2019-03-31T17:56:25.653Z,101741.63
2019-03-31T17:58:58.550Z,101747.73
2019-03-31T18:01:31.534Z,101753.87
2019-03-31T18:04:04.335Z,101755.58
2019-03-31T18:06:37.253Z,101757.33
2019-03-31T18:09:10.655Z,101762.55
2019-03-31T18:11:43.439Z,101766.48
2019-03-31T18:14:16.207Z,101768.16
2019-03-31T18:16:49.058Z,101769.00
2019-03-31T18:19:24.540Z,101772.95
2019-03-31T18:21:58.067Z,101780.78
2019-03-31T18:24:31.139Z,101781.58
2019-03-31T18:27:05.204Z,101790.31
2019-03-31T18:29:39.731Z,101791.55
2019-03-31T18:32:12.763Z,101793.71
2019-03-31T18:34:45.677Z,101804.98
2019-03-31T18:37:18.552Z,101806.65
2019-03-31T18:39:51.449Z,101816.25
2019-03-31T18:42:24.275Z,101812.23
2019-03-31T18:44:57.228Z,101820.09
2019-03-31T18:47:30.073Z,101818.77
2019-03-31T18:50:02.950Z,101826.65
2019-03-31T18:52:35.881Z,101820.48
2019-03-31T18:55:30.206Z,101821.76
2019-03-31T18:58:31.334Z,101827.78
2019-03-31T19:01:21.721Z,101835.22
2019-03-31T19:04:13.336Z,101835.45
2019-03-31T19:07:18.090Z,101838.11
2019-03-31T19:10:02.376Z,101843.23
2019-03-31T19:12:50.537Z,101848.92
2019-03-31T19:15:37.012Z,101847.57
2019-03-31T19:18:21.108Z,101860.98
2019-03-31T19:21:31.059Z,101864.41
2019-03-31T19:24:38.831Z,101862.70
2019-03-31T19:27:41.188Z,101861.16
2019-03-31T19:30:45.418Z,101878.82
2019-03-31T19:33:29.114Z,101880.47
2019-03-31T19:36:23.824Z,101885.67
2019-03-31T19:39:15.587Z,101886.22
2019-03-31T19:42:01.634Z,101889.50
2019-03-31T19:44:53.289Z,101896.72
2019-03-31T19:47:44.911Z,101896.33
2019-03-31T19:50:49.787Z,101899.38
2019-03-31T19:53:41.525Z,101908.03
2019-03-31T19:56:31.508Z,101912.31
2019-03-31T19:59:21.957Z,101915.28
2019-03-31T20:02:17.111Z,101913.50
2019-03-31T20:05:02.225Z,101924.80
2019-03-31T20:07:53.044Z,101922.94
2019-03-31T20:10:43.745Z,101920.63
2019-03-31T20:13:44.687Z,101925.86
2019-03-31T20:16:35.064Z,101926.17
2019-03-31T20:19:27.592Z,101930.33
2019-03-31T20:22:11.365Z,101937.73
2019-03-31T20:25:06.232Z,101938.33
2019-03-31T20:28:07.116Z,101934.94
2019-03-31T20:30:46.681Z,101940.69
2019-03-31T20:33:44.174Z,101936.69
2019-03-31T20:36:48.064Z,101937.25
2019-03-31T20:39:56.437Z,101939.48
2019-03-31T20:42:41.102Z,101944.43
2019-03-31T20:45:14.008Z,101949.97
2019-03-31T20:47:48.113Z,101951.70
2019-03-31T20:50:24.942Z,101951.52
2019-03-31T20:52:57.854Z,101955.09
2019-03-31T20:55:30.661Z,101960.84
2019-03-31T20:58:03.745Z,101958.83
2019-03-31T21:00:36.557Z,101964.97
2019-03-31T21:03:09.494Z,101967.59
2019-03-31T21:05:42.602Z,101977.02
2019-03-31T21:08:15.524Z,101975.53
2019-03-31T21:10:48.402Z,101973.73
2019-03-31T21:13:22.387Z,101985.93
2019-03-31T21:15:55.639Z,101985.44
2019-03-31T21:18:28.468Z,101979.58
2019-03-31T21:21:01.323Z,101986.05
2019-03-31T21:23:34.601Z,101991.66
2019-03-31T21:26:07.494Z,101995.19
2019-03-31T21:28:41.533Z,102000.23
2019-03-31T21:31:14.710Z,102001.48
2019-03-31T21:33:47.669Z,101999.42
2019-03-31T21:36:20.553Z,102003.66
2019-03-31T21:38:53.501Z,102004.62
2019-03-31T21:41:27.338Z,102004.72
2019-03-31T21:44:00.218Z,102010.96
2019-03-31T21:46:32.961Z,102013.73
2019-03-31T21:49:05.831Z,102013.63
2019-03-31T21:51:38.719Z,102015.08
2019-03-31T21:54:12.599Z,102022.86
2019-03-31T21:56:45.475Z,102023.09
2019-03-31T21:59:18.280Z,102027.22
2019-03-31T22:01:51.008Z,102031.67
2019-03-31T22:04:23.912Z,102031.30
2019-03-31T22:06:56.793Z,102034.56
2019-03-31T22:09:29.612Z,102037.73
2019-03-31T22:12:02.334Z,102034.13
2019-03-31T22:14:36.542Z,102038.41
2019-03-31T22:17:09.257Z,102036.19
2019-03-31T22:19:42.001Z,102037.00
2019-03-31T22:22:14.819Z,102039.63
2019-03-31T22:24:48.730Z,102043.25
2019-03-31T22:27:21.594Z,102038.08
2019-03-31T22:29:54.636Z,102042.48
2019-03-31T22:32:28.524Z,102048.96
2019-03-31T22:35:01.374Z,102043.73
2019-03-31T22:37:34.361Z,102046.73
2019-03-31T22:40:07.340Z,102055.87
2019-03-31T22:42:40.202Z,102053.45
2019-03-31T22:45:14.449Z,102054.16
2019-03-31T22:47:47.336Z,102054.64
2019-03-31T22:50:20.549Z,102054.95
2019-03-31T22:52:54.353Z,102060.55
2019-03-31T22:55:27.165Z,102051.72
2019-03-31T22:58:00.027Z,102060.25
2019-03-31T23:00:32.835Z,102064.11
2019-03-31T23:03:05.697Z,102069.33
2019-03-31T23:05:38.528Z,102071.06
2019-03-31T23:08:11.395Z,102076.16
2019-03-31T23:10:44.618Z,102075.22
2019-03-31T23:13:17.342Z,102077.45
2019-03-31T23:15:50.260Z,102079.52
2019-03-31T23:18:23.144Z,102084.16
2019-03-31T23:20:56.963Z,102083.90
2019-03-31T23:23:30.114Z,102083.97
2019-03-31T23:26:02.962Z,102087.99
2019-03-31T23:28:37.519Z,102083.73
2019-03-31T23:31:10.257Z,102089.38
2019-03-31T23:33:43.016Z,102085.70
2019-03-31T23:36:15.780Z,102088.50
2019-03-31T23:38:48.828Z,102084.22
2019-03-31T23:41:21.598Z,102087.63
2019-03-31T23:43:54.404Z,102086.63
2019-03-31T23:46:27.938Z,102091.16
2019-03-31T23:49:00.740Z,102088.61
2019-03-31T23:51:33.592Z,102093.59
2019-03-31T23:54:06.426Z,102091.89
2019-03-31T23:56:40.255Z,102094.95
2019-03-31T23:59:13.058Z,102096.75
